sensor_id;sensor_type;location;lat;lon;timestamp;temperature;humidity
16174;DHT22;14031;50.158;8.626;2024-03-23T00:55:35;9.80;99.90
16174;DHT22;14031;50.158;8.626;2024-03-23T00:58:02;9.80;99.90
16174;DHT22;14031;50.158;8.626;2024-03-23T01:00:28;9.90;99.90
16174;DHT22;14031;50.158;8.626;2024-03-23T01:02:55;9.80;99.90
16174;DHT22;14031;50.158;8.626;2024-03-23T01:05:21;9.90;99.90
16174;DHT22;14031;50.158;8.626;2024-03-23T01:07:47;10.00;99.90
16174;DHT22;14031;50.158;8.626;2024-03-23T01:10:13;10.10;99.90
16174;DHT22;14031;50.158;8.626;2024-03-23T01:12:41;10.10;99.90
16174;DHT22;14031;50.158;8.626;2024-03-23T01:15:08;10.20;99.90
16174;DHT22;14031;50.158;8.626;2024-03-23T01:17:35;10.20;99.90
16174;DHT22;14031;50.158;8.626;2024-03-23T01:20:00;10.20;99.90
16174;DHT22;14031;50.158;8.626;2024-03-23T01:22:27;10.20;99.90
16174;DHT22;14031;50.158;8.626;2024-03-23T01:24:53;10.10;99.90
16174;DHT22;14031;50.158;8.626;2024-03-23T01:27:19;10.20;99.90
16174;DHT22;14031;50.158;8.626;2024-03-23T01:29:47;10.20;99.90
16174;DHT22;14031;50.158;8.626;2024-03-23T01:32:13;10.20;99.90
16174;DHT22;14031;50.158;8.626;2024-03-23T01:34:39;10.30;99.90
16174;DHT22;14031;50.158;8.626;2024-03-23T01:37:06;10.20;99.90
16174;DHT22;14031;50.158;8.626;2024-03-23T01:39:32;10.20;99.90
16174;DHT22;14031;50.158;8.626;2024-03-23T01:41:58;10.10;99.90
16174;DHT22;14031;50.158;8.626;2024-03-23T01:44:24;10.20;99.90
16174;DHT22;14031;50.158;8.626;2024-03-23T01:46:52;10.00;99.90
16174;DHT22;14031;50.158;8.626;2024-03-23T01:49:18;10.10;99.90
16174;DHT22;14031;50.158;8.626;2024-03-23T01:51:45;10.10;99.90
16174;DHT22;14031;50.158;8.626;2024-03-23T01:54:11;10.00;99.90
16174;DHT22;14031;50.158;8.626;2024-03-23T01:56:38;10.00;99.90
16174;DHT22;14031;50.158;8.626;2024-03-23T01:59:05;9.90;99.90
16174;DHT22;14031;50.158;8.626;2024-03-23T02:01:32;9.90;99.90
16174;DHT22;14031;50.158;8.626;2024-03-23T02:04:00;9.90;99.90
16174;DHT22;14031;50.158;8.626;2024-03-23T02:06:26;9.90;99.90
16174;DHT22;14031;50.158;8.626;2024-03-23T02:08:53;9.80;99.90
16174;DHT22;14031;50.158;8.626;2024-03-23T02:11:20;9.90;99.90
16174;DHT22;14031;50.158;8.626;2024-03-23T02:13:45;9.90;99.90
16174;DHT22;14031;50.158;8.626;2024-03-23T02:16:12;9.90;99.90
16174;DHT22;14031;50.158;8.626;2024-03-23T02:18:38;9.80;99.90
16174;DHT22;14031;50.158;8.626;2024-03-23T02:21:07;9.90;99.90
16174;DHT22;14031;50.158;8.626;2024-03-23T02:23:34;9.80;99.90
16174;DHT22;14031;50.158;8.626;2024-03-23T02:26:00;9.90;99.90
16174;DHT22;14031;50.158;8.626;2024-03-23T02:28:26;9.90;99.90
16174;DHT22;14031;50.158;8.626;2024-03-23T02:30:53;9.90;99.90
16174;DHT22;14031;50.158;8.626;2024-03-23T02:33:19;9.90;99.90
16174;DHT22;14031;50.158;8.626;2024-03-23T02:35:46;10.00;99.90
16174;DHT22;14031;50.158;8.626;2024-03-23T02:38:12;9.90;99.90
16174;DHT22;14031;50.158;8.626;2024-03-23T02:40:40;9.90;99.90
16174;DHT22;14031;50.158;8.626;2024-03-23T02:43:06;9.90;99.90
16174;DHT22;14031;50.158;8.626;2024-03-23T02:45:33;10.00;99.90
16174;DHT22;14031;50.158;8.626;2024-03-23T02:47:59;10.00;99.90
16174;DHT22;14031;50.158;8.626;2024-03-23T02:50:25;9.90;99.90
16174;DHT22;14031;50.158;8.626;2024-03-23T02:52:51;9.90;99.90
16174;DHT22;14031;50.158;8.626;2024-03-23T02:55:18;10.00;99.90
16174;DHT22;14031;50.158;8.626;2024-03-23T02:57:45;10.00;99.90
16174;DHT22;14031;50.158;8.626;2024-03-23T03:00:12;10.00;99.90
16174;DHT22;14031;50.158;8.626;2024-03-23T03:02:38;10.00;99.90
16174;DHT22;14031;50.158;8.626;2024-03-23T03:05:06;10.20;99.90
16174;DHT22;14031;50.158;8.626;2024-03-23T03:07:32;10.10;99.90
16174;DHT22;14031;50.158;8.626;2024-03-23T03:09:58;10.10;99.90
16174;DHT22;14031;50.158;8.626;2024-03-23T03:12:24;10.20;99.90
16174;DHT22;14031;50.158;8.626;2024-03-23T03:14:52;10.10;99.90
16174;DHT22;14031;50.158;8.626;2024-03-23T03:17:18;10.10;99.90
16174;DHT22;14031;50.158;8.626;2024-03-23T03:19:45;10.10;99.90
16174;DHT22;14031;50.158;8.626;2024-03-23T03:22:11;10.20;99.90
16174;DHT22;14031;50.158;8.626;2024-03-23T03:24:38;10.10;99.90
16174;DHT22;14031;50.158;8.626;2024-03-23T03:27:03;10.10;99.90
16174;DHT22;14031;50.158;8.626;2024-03-23T03:29:32;10.10;99.90
16174;DHT22;14031;50.158;8.626;2024-03-23T03:32:02;10.10;99.90
16174;DHT22;14031;50.158;8.626;2024-03-23T03:34:29;10.20;99.90
16174;DHT22;14031;50.158;8.626;2024-03-23T03:36:56;10.10;99.90
16174;DHT22;14031;50.158;8.626;2024-03-23T03:39:23;10.10;99.90
16174;DHT22;14031;50.158;8.626;2024-03-23T03:41:49;10.20;99.90
16174;DHT22;14031;50.158;8.626;2024-03-23T03:44:16;10.10;99.90
16174;DHT22;14031;50.158;8.626;2024-03-23T03:46:42;10.00;99.90
16174;DHT22;14031;50.158;8.626;2024-03-23T03:49:10;10.10;99.90
16174;DHT22;14031;50.158;8.626;2024-03-23T03:51:36;10.10;99.90
16174;DHT22;14031;50.158;8.626;2024-03-23T03:54:03;10.10;99.90
16174;DHT22;14031;50.158;8.626;2024-03-23T03:56:28;10.10;99.90
16174;DHT22;14031;50.158;8.626;2024-03-23T03:58:55;10.20;99.90
16174;DHT22;14031;50.158;8.626;2024-03-23T04:01:21;10.10;99.90
16174;DHT22;14031;50.158;8.626;2024-03-23T04:03:48;10.00;99.90
16174;DHT22;14031;50.158;8.626;2024-03-23T04:06:20;10.00;99.90
16174;DHT22;14031;50.158;8.626;2024-03-23T04:08:47;10.00;99.90
16174;DHT22;14031;50.158;8.626;2024-03-23T04:11:12;10.00;99.90
16174;DHT22;14031;50.158;8.626;2024-03-23T04:13:39;10.00;99.90
16174;DHT22;14031;50.158;8.626;2024-03-23T04:16:07;10.10;99.90
16174;DHT22;14031;50.158;8.626;2024-03-23T04:18:34;10.10;99.90
16174;DHT22;14031;50.158;8.626;2024-03-23T04:21:00;10.20;99.90
16174;DHT22;14031;50.158;8.626;2024-03-23T04:23:28;10.20;99.90
16174;DHT22;14031;50.158;8.626;2024-03-23T04:25:54;10.20;99.90
16174;DHT22;14031;50.158;8.626;2024-03-23T04:28:21;10.10;99.90
16174;DHT22;14031;50.158;8.626;2024-03-23T04:30:46;9.90;99.90
16174;DHT22;14031;50.158;8.626;2024-03-23T04:33:13;9.80;99.90
16174;DHT22;14031;50.158;8.626;2024-03-23T04:35:39;9.50;99.90
16174;DHT22;14031;50.158;8.626;2024-03-23T04:38:06;9.40;99.90
16174;DHT22;14031;50.158;8.626;2024-03-23T04:40:34;9.30;99.90
16174;DHT22;14031;50.158;8.626;2024-03-23T04:43:01;9.30;99.90
16174;DHT22;14031;50.158;8.626;2024-03-23T04:45:27;9.20;99.90
16174;DHT22;14031;50.158;8.626;2024-03-23T04:47:54;9.20;99.90
16174;DHT22;14031;50.158;8.626;2024-03-23T04:50:20;9.10;99.90
16174;DHT22;14031;50.158;8.626;2024-03-23T04:52:47;9.00;99.90
16174;DHT22;14031;50.158;8.626;2024-03-23T04:55:13;8.90;99.90
16174;DHT22;14031;50.158;8.626;2024-03-23T04:57:42;8.80;99.90
16174;DHT22;14031;50.158;8.626;2024-03-23T05:00:09;8.80;99.90
16174;DHT22;14031;50.158;8.626;2024-03-23T05:02:43;8.80;99.90
16174;DHT22;14031;50.158;8.626;2024-03-23T05:05:09;8.70;99.90
16174;DHT22;14031;50.158;8.626;2024-03-23T05:07:36;8.70;99.90
16174;DHT22;14031;50.158;8.626;2024-03-23T05:10:03;8.70;99.90
16174;DHT22;14031;50.158;8.626;2024-03-23T05:12:29;8.60;99.90
16174;DHT22;14031;50.158;8.626;2024-03-23T05:14:58;8.70;99.90
16174;DHT22;14031;50.158;8.626;2024-03-23T05:17:23;8.70;99.90
16174;DHT22;14031;50.158;8.626;2024-03-23T05:19:50;8.60;99.90
16174;DHT22;14031;50.158;8.626;2024-03-23T05:22:16;8.60;99.90
16174;DHT22;14031;50.158;8.626;2024-03-23T05:24:45;8.60;99.90
16174;DHT22;14031;50.158;8.626;2024-03-23T05:27:10;8.60;99.90
16174;DHT22;14031;50.158;8.626;2024-03-23T05:29:37;8.70;99.90
16174;DHT22;14031;50.158;8.626;2024-03-23T05:32:04;8.70;99.90
16174;DHT22;14031;50.158;8.626;2024-03-23T05:34:31;8.70;99.90
16174;DHT22;14031;50.158;8.626;2024-03-23T05:36:57;8.70;99.90
16174;DHT22;14031;50.158;8.626;2024-03-23T05:39:24;8.70;99.90
16174;DHT22;14031;50.158;8.626;2024-03-23T05:41:50;8.80;99.90
16174;DHT22;14031;50.158;8.626;2024-03-23T05:44:16;8.80;99.90
16174;DHT22;14031;50.158;8.626;2024-03-23T05:46:42;8.80;99.90
16174;DHT22;14031;50.158;8.626;2024-03-23T05:49:15;8.90;99.90
16174;DHT22;14031;50.158;8.626;2024-03-23T05:51:42;8.80;99.90
16174;DHT22;14031;50.158;8.626;2024-03-23T05:54:08;8.80;99.90
16174;DHT22;14031;50.158;8.626;2024-03-23T05:56:35;8.80;99.90
16174;DHT22;14031;50.158;8.626;2024-03-23T05:59:00;8.90;99.90
16174;DHT22;14031;50.158;8.626;2024-03-23T06:01:29;8.80;99.90
16174;DHT22;14031;50.158;8.626;2024-03-23T06:03:58;8.90;99.90
16174;DHT22;14031;50.158;8.626;2024-03-23T06:06:28;9.10;99.90
16174;DHT22;14031;50.158;8.626;2024-03-23T06:08:55;8.90;99.90
16174;DHT22;14031;50.158;8.626;2024-03-23T06:11:22;9.00;99.90
16174;DHT22;14031;50.158;8.626;2024-03-23T06:13:48;9.00;99.90
16174;DHT22;14031;50.158;8.626;2024-03-23T06:16:14;8.90;99.90
16174;DHT22;14031;50.158;8.626;2024-03-23T06:18:40;9.10;99.90
16174;DHT22;14031;50.158;8.626;2024-03-23T06:21:13;8.70;99.90
16174;DHT22;14031;50.158;8.626;2024-03-23T06:23:40;8.80;99.90
16174;DHT22;14031;50.158;8.626;2024-03-23T06:26:07;8.70;99.90
16174;DHT22;14031;50.158;8.626;2024-03-23T06:28:33;8.60;99.90
16174;DHT22;14031;50.158;8.626;2024-03-23T06:31:00;8.60;99.90
16174;DHT22;14031;50.158;8.626;2024-03-23T06:33:25;8.50;99.90
16174;DHT22;14031;50.158;8.626;2024-03-23T06:35:52;8.60;99.90
16174;DHT22;14031;50.158;8.626;2024-03-23T06:38:18;8.60;99.90
16174;DHT22;14031;50.158;8.626;2024-03-23T06:40:46;8.80;99.90
16174;DHT22;14031;50.158;8.626;2024-03-23T06:43:14;8.70;99.90
16174;DHT22;14031;50.158;8.626;2024-03-23T06:45:40;8.90;99.90
16174;DHT22;14031;50.158;8.626;2024-03-23T06:48:06;8.90;99.90
16174;DHT22;14031;50.158;8.626;2024-03-23T06:50:34;8.90;99.90
16174;DHT22;14031;50.158;8.626;2024-03-23T06:53:00;8.80;99.90
16174;DHT22;14031;50.158;8.626;2024-03-23T06:55:27;8.90;99.90
16174;DHT22;14031;50.158;8.626;2024-03-23T06:57:54;9.00;99.90
16174;DHT22;14031;50.158;8.626;2024-03-23T07:00:21;8.80;99.90
16174;DHT22;14031;50.158;8.626;2024-03-23T07:02:47;8.90;99.90
16174;DHT22;14031;50.158;8.626;2024-03-23T07:05:14;9.00;99.90
16174;DHT22;14031;50.158;8.626;2024-03-23T07:07:40;9.00;99.90
16174;DHT22;14031;50.158;8.626;2024-03-23T07:10:07;9.10;99.90
16174;DHT22;14031;50.158;8.626;2024-03-23T07:12:33;9.10;99.90
16174;DHT22;14031;50.158;8.626;2024-03-23T07:15:01;9.10;99.90
16174;DHT22;14031;50.158;8.626;2024-03-23T07:17:27;9.10;99.90
16174;DHT22;14031;50.158;8.626;2024-03-23T07:19:53;9.10;99.90
16174;DHT22;14031;50.158;8.626;2024-03-23T07:22:19;9.10;99.90
16174;DHT22;14031;50.158;8.626;2024-03-23T07:24:46;9.10;99.90
16174;DHT22;14031;50.158;8.626;2024-03-23T07:27:12;9.10;99.90
16174;DHT22;14031;50.158;8.626;2024-03-23T07:29:38;9.10;99.90
16174;DHT22;14031;50.158;8.626;2024-03-23T07:32:06;9.20;99.90
16174;DHT22;14031;50.158;8.626;2024-03-23T07:34:33;9.20;99.90
16174;DHT22;14031;50.158;8.626;2024-03-23T07:36:58;9.10;99.90
16174;DHT22;14031;50.158;8.626;2024-03-23T07:39:25;9.00;99.90
16174;DHT22;14031;50.158;8.626;2024-03-23T07:41:53;9.00;99.90
16174;DHT22;14031;50.158;8.626;2024-03-23T07:44:19;9.00;99.90
16174;DHT22;14031;50.158;8.626;2024-03-23T07:46:45;9.10;99.90
16174;DHT22;14031;50.158;8.626;2024-03-23T07:49:13;9.10;99.90
16174;DHT22;14031;50.158;8.626;2024-03-23T07:51:39;9.20;99.90
16174;DHT22;14031;50.158;8.626;2024-03-23T07:54:06;9.50;99.90
16174;DHT22;14031;50.158;8.626;2024-03-23T07:56:32;9.40;99.90
16174;DHT22;14031;50.158;8.626;2024-03-23T07:58:59;9.40;99.90
16174;DHT22;14031;50.158;8.626;2024-03-23T08:01:25;9.60;99.90
16174;DHT22;14031;50.158;8.626;2024-03-23T08:03:52;9.60;99.90
16174;DHT22;14031;50.158;8.626;2024-03-23T08:06:20;9.60;99.90
16174;DHT22;14031;50.158;8.626;2024-03-23T08:08:51;9.60;99.90
16174;DHT22;14031;50.158;8.626;2024-03-23T08:11:24;9.70;99.90
16174;DHT22;14031;50.158;8.626;2024-03-23T08:13:51;9.70;99.90
16174;DHT22;14031;50.158;8.626;2024-03-23T08:16:17;9.80;99.90
16174;DHT22;14031;50.158;8.626;2024-03-23T08:18:44;9.70;99.90
16174;DHT22;14031;50.158;8.626;2024-03-23T08:21:10;9.90;99.90
16174;DHT22;14031;50.158;8.626;2024-03-23T08:23:38;9.70;99.90
16174;DHT22;14031;50.158;8.626;2024-03-23T08:26:06;9.80;99.90
16174;DHT22;14031;50.158;8.626;2024-03-23T08:28:33;10.00;99.90
16174;DHT22;14031;50.158;8.626;2024-03-23T08:31:01;9.90;99.90
16174;DHT22;14031;50.158;8.626;2024-03-23T08:33:29;9.80;99.90
16174;DHT22;14031;50.158;8.626;2024-03-23T08:35:55;9.80;99.90
16174;DHT22;14031;50.158;8.626;2024-03-23T08:38:23;9.80;99.90
16174;DHT22;14031;50.158;8.626;2024-03-23T08:40:56;9.80;99.90
16174;DHT22;14031;50.158;8.626;2024-03-23T08:43:23;9.80;99.90
16174;DHT22;14031;50.158;8.626;2024-03-23T08:45:49;9.90;99.90
16174;DHT22;14031;50.158;8.626;2024-03-23T08:48:15;10.00;99.90
16174;DHT22;14031;50.158;8.626;2024-03-23T08:50:41;10.20;99.90
16174;DHT22;14031;50.158;8.626;2024-03-23T08:53:08;10.40;99.90
16174;DHT22;14031;50.158;8.626;2024-03-23T08:55:34;10.70;99.90
16174;DHT22;14031;50.158;8.626;2024-03-23T08:58:02;10.70;99.90
16174;DHT22;14031;50.158;8.626;2024-03-23T09:00:29;10.70;99.90
16174;DHT22;14031;50.158;8.626;2024-03-23T09:02:57;10.70;99.90
16174;DHT22;14031;50.158;8.626;2024-03-23T09:05:22;10.80;99.90
16174;DHT22;14031;50.158;8.626;2024-03-23T09:07:50;10.80;99.90
16174;DHT22;14031;50.158;8.626;2024-03-23T09:10:16;10.80;99.90
16174;DHT22;14031;50.158;8.626;2024-03-23T09:12:43;10.80;99.90
16174;DHT22;14031;50.158;8.626;2024-03-23T09:15:10;10.90;99.90
16174;DHT22;14031;50.158;8.626;2024-03-23T09:17:37;11.10;99.90
16174;DHT22;14031;50.158;8.626;2024-03-23T09:20:03;11.10;99.90
16174;DHT22;14031;50.158;8.626;2024-03-23T09:22:30;11.20;99.90
16174;DHT22;14031;50.158;8.626;2024-03-23T09:24:56;11.40;99.90
16174;DHT22;14031;50.158;8.626;2024-03-23T09:27:23;11.40;99.90
16174;DHT22;14031;50.158;8.626;2024-03-23T09:29:48;11.60;99.90
16174;DHT22;14031;50.158;8.626;2024-03-23T09:32:16;11.50;99.90
16174;DHT22;14031;50.158;8.626;2024-03-23T09:34:42;11.40;99.90
16174;DHT22;14031;50.158;8.626;2024-03-23T09:37:09;11.30;99.90
16174;DHT22;14031;50.158;8.626;2024-03-23T09:39:35;11.20;99.90
16174;DHT22;14031;50.158;8.626;2024-03-23T09:42:02;11.20;99.90
16174;DHT22;14031;50.158;8.626;2024-03-23T09:44:29;11.20;99.90
16174;DHT22;14031;50.158;8.626;2024-03-23T09:46:56;11.30;99.90
16174;DHT22;14031;50.158;8.626;2024-03-23T09:49:23;11.30;99.90
16174;DHT22;14031;50.158;8.626;2024-03-23T09:51:50;11.40;99.90
16174;DHT22;14031;50.158;8.626;2024-03-23T09:54:16;11.40;99.90
16174;DHT22;14031;50.158;8.626;2024-03-23T09:56:43;11.60;99.90
16174;DHT22;14031;50.158;8.626;2024-03-23T09:59:09;11.70;99.90
16174;DHT22;14031;50.158;8.626;2024-03-23T10:01:36;11.80;99.90
16174;DHT22;14031;50.158;8.626;2024-03-23T10:04:03;11.90;99.90
16174;DHT22;14031;50.158;8.626;2024-03-23T10:06:32;12.10;99.90
16174;DHT22;14031;50.158;8.626;2024-03-23T10:08:57;12.20;99.90
16174;DHT22;14031;50.158;8.626;2024-03-23T10:11:24;12.40;99.90
16174;DHT22;14031;50.158;8.626;2024-03-23T10:13:51;12.60;99.90
16174;DHT22;14031;50.158;8.626;2024-03-23T10:16:22;12.60;99.90
16174;DHT22;14031;50.158;8.626;2024-03-23T10:18:48;12.50;99.90
16174;DHT22;14031;50.158;8.626;2024-03-23T10:21:16;12.40;99.90
16174;DHT22;14031;50.158;8.626;2024-03-23T10:23:44;12.40;99.90
16174;DHT22;14031;50.158;8.626;2024-03-23T10:26:16;12.50;99.90
16174;DHT22;14031;50.158;8.626;2024-03-23T10:28:53;12.70;99.90
16174;DHT22;14031;50.158;8.626;2024-03-23T10:31:21;12.80;99.90
16174;DHT22;14031;50.158;8.626;2024-03-23T10:33:47;12.60;99.90
16174;DHT22;14031;50.158;8.626;2024-03-23T10:36:14;12.60;99.90
16174;DHT22;14031;50.158;8.626;2024-03-23T10:38:41;12.70;99.90
16174;DHT22;14031;50.158;8.626;2024-03-23T10:41:10;12.70;99.90
16174;DHT22;14031;50.158;8.626;2024-03-23T10:43:36;12.70;99.90
16174;DHT22;14031;50.158;8.626;2024-03-23T10:46:03;12.80;99.90
16174;DHT22;14031;50.158;8.626;2024-03-23T10:48:29;12.70;99.90
16174;DHT22;14031;50.158;8.626;2024-03-23T10:50:56;12.80;99.90
16174;DHT22;14031;50.158;8.626;2024-03-23T10:53:25;12.70;99.90
16174;DHT22;14031;50.158;8.626;2024-03-23T10:55:52;12.50;99.90
16174;DHT22;14031;50.158;8.626;2024-03-23T10:58:23;12.00;99.90
16174;DHT22;14031;50.158;8.626;2024-03-23T11:00:51;11.50;99.90
16174;DHT22;14031;50.158;8.626;2024-03-23T11:03:35;10.60;99.90
16174;DHT22;14031;50.158;8.626;2024-03-23T11:06:03;9.70;99.90
16174;DHT22;14031;50.158;8.626;2024-03-23T11:08:30;9.30;99.90
16174;DHT22;14031;50.158;8.626;2024-03-23T11:11:17;9.30;99.90
16174;DHT22;14031;50.158;8.626;2024-03-23T11:13:47;9.50;99.90
16174;DHT22;14031;50.158;8.626;2024-03-23T11:16:15;9.60;99.90
16174;DHT22;14031;50.158;8.626;2024-03-23T11:18:41;9.80;99.90
16174;DHT22;14031;50.158;8.626;2024-03-23T11:21:09;9.90;99.90
16174;DHT22;14031;50.158;8.626;2024-03-23T11:23:35;10.20;99.90
16174;DHT22;14031;50.158;8.626;2024-03-23T11:26:01;10.20;99.90
16174;DHT22;14031;50.158;8.626;2024-03-23T11:28:28;10.40;99.90
16174;DHT22;14031;50.158;8.626;2024-03-23T11:30:56;10.60;99.90
16174;DHT22;14031;50.158;8.626;2024-03-23T11:33:22;10.60;99.90
16174;DHT22;14031;50.158;8.626;2024-03-23T11:35:49;10.60;99.90
16174;DHT22;14031;50.158;8.626;2024-03-23T11:38:17;10.80;99.90
16174;DHT22;14031;50.158;8.626;2024-03-23T11:40:45;10.90;99.90
16174;DHT22;14031;50.158;8.626;2024-03-23T11:43:13;11.10;99.90
16174;DHT22;14031;50.158;8.626;2024-03-23T11:45:43;11.10;99.90
16174;DHT22;14031;50.158;8.626;2024-03-23T11:48:11;11.20;99.90
16174;DHT22;14031;50.158;8.626;2024-03-23T11:50:40;11.20;99.90
16174;DHT22;14031;50.158;8.626;2024-03-23T11:53:15;11.00;99.90
16174;DHT22;14031;50.158;8.626;2024-03-23T11:55:46;10.80;99.90
16174;DHT22;14031;50.158;8.626;2024-03-23T11:58:13;10.70;99.90
16174;DHT22;14031;50.158;8.626;2024-03-23T12:00:40;10.70;99.90
16174;DHT22;14031;50.158;8.626;2024-03-23T12:03:06;10.70;99.90
16174;DHT22;14031;50.158;8.626;2024-03-23T12:05:36;10.80;99.90
16174;DHT22;14031;50.158;8.626;2024-03-23T12:08:22;10.80;99.90
16174;DHT22;14031;50.158;8.626;2024-03-23T12:10:51;11.00;99.90
16174;DHT22;14031;50.158;8.626;2024-03-23T12:13:18;11.20;99.90
16174;DHT22;14031;50.158;8.626;2024-03-23T12:15:46;11.30;99.90
16174;DHT22;14031;50.158;8.626;2024-03-23T12:18:12;11.40;99.90
16174;DHT22;14031;50.158;8.626;2024-03-23T12:20:40;11.60;99.90
16174;DHT22;14031;50.158;8.626;2024-03-23T12:23:07;11.70;99.90
16174;DHT22;14031;50.158;8.626;2024-03-23T12:25:35;11.90;99.90
16174;DHT22;14031;50.158;8.626;2024-03-23T12:28:01;12.00;99.90
16174;DHT22;14031;50.158;8.626;2024-03-23T12:30:28;12.10;99.90
16174;DHT22;14031;50.158;8.626;2024-03-23T12:32:53;12.30;99.90
16174;DHT22;14031;50.158;8.626;2024-03-23T12:35:20;12.50;99.90
16174;DHT22;14031;50.158;8.626;2024-03-23T12:37:47;12.70;99.90
16174;DHT22;14031;50.158;8.626;2024-03-23T12:40:14;13.00;99.90
16174;DHT22;14031;50.158;8.626;2024-03-23T12:42:40;13.30;99.90
16174;DHT22;14031;50.158;8.626;2024-03-23T12:45:08;13.70;99.90
16174;DHT22;14031;50.158;8.626;2024-03-23T12:47:33;13.70;99.90
16174;DHT22;14031;50.158;8.626;2024-03-23T12:50:00;13.70;99.90
16174;DHT22;14031;50.158;8.626;2024-03-23T12:52:26;13.70;99.90
16174;DHT22;14031;50.158;8.626;2024-03-23T12:54:56;13.70;99.90
16174;DHT22;14031;50.158;8.626;2024-03-23T12:57:23;13.80;99.90
16174;DHT22;14031;50.158;8.626;2024-03-23T12:59:50;13.60;99.90
16174;DHT22;14031;50.158;8.626;2024-03-23T13:02:18;13.60;99.90
16174;DHT22;14031;50.158;8.626;2024-03-23T13:04:46;13.50;99.90
16174;DHT22;14031;50.158;8.626;2024-03-23T13:07:12;13.40;99.90
16174;DHT22;14031;50.158;8.626;2024-03-23T13:09:39;13.20;99.90
16174;DHT22;14031;50.158;8.626;2024-03-23T13:12:07;12.80;99.90
16174;DHT22;14031;50.158;8.626;2024-03-23T13:14:34;12.50;99.90
16174;DHT22;14031;50.158;8.626;2024-03-23T13:17:00;11.60;99.90
16174;DHT22;14031;50.158;8.626;2024-03-23T13:19:27;9.90;99.90
16174;DHT22;14031;50.158;8.626;2024-03-23T13:21:56;8.50;99.90
16174;DHT22;14031;50.158;8.626;2024-03-23T13:24:23;7.80;99.90
16174;DHT22;14031;50.158;8.626;2024-03-23T13:26:50;7.40;99.90
16174;DHT22;14031;50.158;8.626;2024-03-23T13:29:18;7.30;99.90
16174;DHT22;14031;50.158;8.626;2024-03-23T13:31:44;7.10;99.90
16174;DHT22;14031;50.158;8.626;2024-03-23T13:34:11;7.20;99.90
16174;DHT22;14031;50.158;8.626;2024-03-23T13:36:38;7.30;99.90
16174;DHT22;14031;50.158;8.626;2024-03-23T13:39:05;7.40;99.90
16174;DHT22;14031;50.158;8.626;2024-03-23T13:41:37;7.40;99.90
16174;DHT22;14031;50.158;8.626;2024-03-23T13:44:04;7.70;99.90
16174;DHT22;14031;50.158;8.626;2024-03-23T13:46:31;8.20;99.90
16174;DHT22;14031;50.158;8.626;2024-03-23T13:48:58;8.90;99.90
16174;DHT22;14031;50.158;8.626;2024-03-23T13:51:25;9.50;99.90
16174;DHT22;14031;50.158;8.626;2024-03-23T13:53:52;9.90;99.90
16174;DHT22;14031;50.158;8.626;2024-03-23T13:56:18;10.20;99.90
16174;DHT22;14031;50.158;8.626;2024-03-23T13:58:45;10.30;99.90
16174;DHT22;14031;50.158;8.626;2024-03-23T14:01:13;10.90;99.90
16174;DHT22;14031;50.158;8.626;2024-03-23T14:03:41;11.80;99.90
16174;DHT22;14031;50.158;8.626;2024-03-23T14:06:07;12.50;99.90
16174;DHT22;14031;50.158;8.626;2024-03-23T14:08:34;12.60;99.90
16174;DHT22;14031;50.158;8.626;2024-03-23T14:11:02;13.20;99.90
16174;DHT22;14031;50.158;8.626;2024-03-23T14:13:30;13.70;99.90
16174;DHT22;14031;50.158;8.626;2024-03-23T14:15:57;14.40;99.90
16174;DHT22;14031;50.158;8.626;2024-03-23T14:18:23;14.60;99.90
16174;DHT22;14031;50.158;8.626;2024-03-23T14:20:51;14.60;99.90
16174;DHT22;14031;50.158;8.626;2024-03-23T14:23:18;14.30;99.90
16174;DHT22;14031;50.158;8.626;2024-03-23T14:25:44;13.90;99.90
16174;DHT22;14031;50.158;8.626;2024-03-23T14:28:11;14.40;99.90
16174;DHT22;14031;50.158;8.626;2024-03-23T14:30:40;15.70;99.90
16174;DHT22;14031;50.158;8.626;2024-03-23T14:33:07;16.90;99.90
16174;DHT22;14031;50.158;8.626;2024-03-23T14:35:33;17.90;99.90
16174;DHT22;14031;50.158;8.626;2024-03-23T14:38:01;18.70;99.90
16174;DHT22;14031;50.158;8.626;2024-03-23T14:40:27;18.80;99.90
16174;DHT22;14031;50.158;8.626;2024-03-23T14:42:54;18.80;99.90
16174;DHT22;14031;50.158;8.626;2024-03-23T14:45:20;18.50;99.90
16174;DHT22;14031;50.158;8.626;2024-03-23T14:47:47;18.00;99.90
16174;DHT22;14031;50.158;8.626;2024-03-23T14:50:13;17.60;99.90
16174;DHT22;14031;50.158;8.626;2024-03-23T14:52:42;17.90;99.90
16174;DHT22;14031;50.158;8.626;2024-03-23T14:55:09;18.80;99.90
16174;DHT22;14031;50.158;8.626;2024-03-23T14:57:36;19.60;99.90
16174;DHT22;14031;50.158;8.626;2024-03-23T15:00:02;19.30;99.90
16174;DHT22;14031;50.158;8.626;2024-03-23T15:02:31;18.50;99.90
16174;DHT22;14031;50.158;8.626;2024-03-23T15:04:58;17.20;99.90
16174;DHT22;14031;50.158;8.626;2024-03-23T15:07:24;16.10;99.90
16174;DHT22;14031;50.158;8.626;2024-03-23T15:09:50;15.10;99.90
16174;DHT22;14031;50.158;8.626;2024-03-23T15:12:20;14.50;99.90
16174;DHT22;14031;50.158;8.626;2024-03-23T15:14:47;14.60;99.90
16174;DHT22;14031;50.158;8.626;2024-03-23T15:17:14;15.10;99.90
16174;DHT22;14031;50.158;8.626;2024-03-23T15:19:39;15.70;99.90
16174;DHT22;14031;50.158;8.626;2024-03-23T15:22:07;15.50;99.90
16174;DHT22;14031;50.158;8.626;2024-03-23T15:24:34;15.00;99.90
16174;DHT22;14031;50.158;8.626;2024-03-23T15:27:01;14.60;99.90
16174;DHT22;14031;50.158;8.626;2024-03-23T15:29:29;14.00;99.90
16174;DHT22;14031;50.158;8.626;2024-03-23T15:31:56;13.50;99.90
16174;DHT22;14031;50.158;8.626;2024-03-23T15:34:22;13.10;99.90
16174;DHT22;14031;50.158;8.626;2024-03-23T15:36:49;12.80;99.90
16174;DHT22;14031;50.158;8.626;2024-03-23T15:39:16;12.50;99.90
16174;DHT22;14031;50.158;8.626;2024-03-23T15:41:44;12.00;99.90
16174;DHT22;14031;50.158;8.626;2024-03-23T15:44:10;11.10;99.90
16174;DHT22;14031;50.158;8.626;2024-03-23T15:46:38;8.30;99.90
16174;DHT22;14031;50.158;8.626;2024-03-23T15:49:04;7.20;99.90
16174;DHT22;14031;50.158;8.626;2024-03-23T15:51:31;7.00;99.90
16174;DHT22;14031;50.158;8.626;2024-03-23T15:54:00;7.00;99.90
16174;DHT22;14031;50.158;8.626;2024-03-23T15:56:28;7.20;99.90
16174;DHT22;14031;50.158;8.626;2024-03-23T15:58:54;7.20;99.90
16174;DHT22;14031;50.158;8.626;2024-03-23T16:01:21;7.40;99.90
16174;DHT22;14031;50.158;8.626;2024-03-23T16:03:48;7.70;99.90
16174;DHT22;14031;50.158;8.626;2024-03-23T16:06:15;8.20;99.90
16174;DHT22;14031;50.158;8.626;2024-03-23T16:08:41;8.70;99.90
16174;DHT22;14031;50.158;8.626;2024-03-23T16:11:08;8.80;99.90
16174;DHT22;14031;50.158;8.626;2024-03-23T16:13:34;8.70;99.90
16174;DHT22;14031;50.158;8.626;2024-03-23T16:16:02;8.40;99.90
16174;DHT22;14031;50.158;8.626;2024-03-23T16:18:29;8.30;99.90
16174;DHT22;14031;50.158;8.626;2024-03-23T16:20:58;8.20;99.90
16174;DHT22;14031;50.158;8.626;2024-03-23T16:23:25;8.30;99.90
16174;DHT22;14031;50.158;8.626;2024-03-23T16:25:54;8.60;99.90
16174;DHT22;14031;50.158;8.626;2024-03-23T16:28:24;8.60;99.90
16174;DHT22;14031;50.158;8.626;2024-03-23T16:30:58;8.70;99.90